Time;durP1;ratioP1;P1;durP2;ratioP2;P2;SDS_P1;SDS_P2;PMS_P1;PMS_P2;Temp;Humidity;BMP_temperature;BMP_pressure;BME280_temperature;BME280_humidity;BME280_pressure;Samples;Min_cycle;Max_cycle;Signal;HPM_P1;HPM_P2
2023/09/08 00:01:19;;;;;;;11.68;4.78;;;18.50;99.90;;;;;;5040036;28;20032;-67
2023/09/08 00:03:45;;;;;;;11.02;4.90;;;18.50;99.90;;;;;;5040142;28;20025;-67
2023/09/08 00:06:11;;;;;;;9.25;5.13;;;18.50;99.90;;;;;;5039918;28;20044;-67
2023/09/08 00:08:36;;;;;;;9.45;5.43;;;18.50;99.90;;;;;;5039543;28;20032;-67
2023/09/08 00:11:02;;;;;;;7.35;4.95;;;18.50;99.90;;;;;;5039763;28;20017;-67
2023/09/08 00:13:27;;;;;;;6.93;4.25;;;18.40;99.90;;;;;;5040744;28;20094;-67
2023/09/08 00:15:53;;;;;;;10.75;4.63;;;18.40;99.90;;;;;;5039533;28;20021;-67
2023/09/08 00:18:18;;;;;;;10.32;4.40;;;18.30;99.90;;;;;;5040060;28;20013;-67
2023/09/08 00:20:44;;;;;;;8.70;4.68;;;18.30;99.90;;;;;;5039789;28;20021;-67
2023/09/08 00:23:09;;;;;;;7.93;4.55;;;18.20;99.90;;;;;;5039403;28;20025;-67
2023/09/08 00:25:35;;;;;;;7.78;4.55;;;18.30;99.90;;;;;;5039677;28;20029;-67
2023/09/08 00:28:01;;;;;;;7.25;4.57;;;18.30;99.90;;;;;;5039206;28;20104;-67
2023/09/08 00:30:26;;;;;;;8.07;4.35;;;18.30;99.90;;;;;;5039892;28;20029;-67
2023/09/08 00:32:52;;;;;;;7.22;4.25;;;18.20;99.90;;;;;;5040164;28;20021;-67
2023/09/08 00:35:17;;;;;;;9.02;4.18;;;18.10;99.90;;;;;;5039541;28;20096;-67
2023/09/08 00:37:43;;;;;;;5.75;4.07;;;18.10;99.90;;;;;;5039514;28;20054;-67
2023/09/08 00:40:09;;;;;;;8.68;4.32;;;18.10;99.90;;;;;;5039566;28;20025;-67
2023/09/08 00:42:35;;;;;;;7.45;4.40;;;18.10;99.90;;;;;;5039177;28;20078;-67
2023/09/08 00:45:01;;;;;;;5.93;4.00;;;18.10;99.90;;;;;;5039571;28;20052;-67
2023/09/08 00:47:26;;;;;;;8.43;4.18;;;18.00;99.90;;;;;;5039491;28;20021;-67
2023/09/08 00:49:52;;;;;;;6.25;3.85;;;18.00;99.90;;;;;;5039248;28;20029;-67
2023/09/08 00:52:18;;;;;;;5.15;3.65;;;17.90;99.90;;;;;;5039358;28;20028;-67
2023/09/08 00:54:43;;;;;;;8.23;4.10;;;17.90;99.90;;;;;;5039122;28;20032;-67
2023/09/08 00:57:09;;;;;;;8.85;3.85;;;17.80;99.90;;;;;;5039150;28;20021;-67
2023/09/08 00:59:36;;;;;;;6.60;4.00;;;17.80;99.90;;;;;;5038927;28;20025;-67
2023/09/08 01:02:02;;;;;;;8.88;4.38;;;17.80;99.90;;;;;;5040985;28;20029;-67
2023/09/08 01:04:28;;;;;;;10.80;4.38;;;17.80;99.90;;;;;;5060451;28;20033;-67
2023/09/08 01:06:55;;;;;;;5.63;3.10;;;17.50;99.90;;;;;;5060532;28;20029;-67
2023/09/08 01:09:21;;;;;;;7.55;3.80;;;17.50;99.90;;;;;;5043059;28;20029;-67
2023/09/08 01:11:47;;;;;;;7.32;3.20;;;17.50;99.90;;;;;;5042870;28;20043;-67
2023/09/08 01:14:15;;;;;;;6.47;3.70;;;17.50;99.90;;;;;;5043585;28;20127;-67
2023/09/08 01:16:41;;;;;;;11.20;3.55;;;17.40;99.90;;;;;;5060224;28;20083;-67
2023/09/08 01:19:11;;;;;;;7.47;3.88;;;17.40;99.90;;;;;;5043049;28;20108;-67
2023/09/08 01:21:57;;;;;;;12.10;4.20;;;17.40;99.90;;;;;;5042611;28;20143;-67
2023/09/08 01:25:06;;;;;;;4.95;3.53;;;17.50;99.90;;;;;;5042816;28;20096;-67
2023/09/08 01:27:37;;;;;;;5.88;3.65;;;17.40;99.90;;;;;;5042290;28;20021;-67
2023/09/08 01:30:06;;;;;;;5.22;3.58;;;17.60;99.90;;;;;;5060190;28;20052;-67
2023/09/08 01:32:32;;;;;;;8.80;4.38;;;17.40;99.90;;;;;;5059901;28;20078;-67
2023/09/08 01:34:59;;;;;;;6.80;4.25;;;17.40;99.90;;;;;;5059928;28;20025;-67
2023/09/08 01:37:25;;;;;;;6.07;4.68;;;17.30;99.90;;;;;;5059769;28;20103;-67
2023/09/08 01:39:50;;;;;;;7.63;4.40;;;17.40;99.90;;;;;;5059872;28;20026;-67
2023/09/08 01:42:16;;;;;;;8.80;4.22;;;17.40;99.90;;;;;;5042265;28;20032;-67
2023/09/08 01:44:41;;;;;;;7.97;5.25;;;17.50;99.90;;;;;;5059585;28;20029;-67
2023/09/08 01:47:07;;;;;;;7.40;4.53;;;17.50;99.90;;;;;;5059643;28;20029;-67
2023/09/08 01:49:33;;;;;;;9.18;3.95;;;17.50;99.90;;;;;;5042483;28;20024;-67
2023/09/08 01:51:58;;;;;;;9.13;4.05;;;17.50;99.90;;;;;;5059505;28;20095;-67
2023/09/08 01:54:24;;;;;;;6.10;4.30;;;17.50;99.90;;;;;;5059829;28;20033;-67
2023/09/08 01:56:51;;;;;;;6.88;3.70;;;17.40;99.90;;;;;;5042208;28;20025;-67
2023/09/08 01:59:16;;;;;;;8.60;4.50;;;17.40;99.90;;;;;;5059650;28;20048;-67
2023/09/08 02:01:42;;;;;;;9.00;4.30;;;17.30;99.90;;;;;;5059331;28;20048;-67
2023/09/08 02:04:07;;;;;;;5.10;3.58;;;17.30;99.90;;;;;;5041825;28;20025;-67
2023/09/08 02:06:33;;;;;;;7.75;4.60;;;17.30;99.90;;;;;;5059907;28;20084;-67
2023/09/08 02:08:58;;;;;;;8.15;4.88;;;17.30;99.90;;;;;;5059071;28;20021;-67
2023/09/08 02:11:24;;;;;;;6.65;3.95;;;17.20;99.90;;;;;;5041960;28;20020;-67
2023/09/08 02:13:50;;;;;;;8.07;4.72;;;17.30;99.90;;;;;;5058202;28;20025;-68
2023/09/08 02:16:16;;;;;;;7.35;3.95;;;17.20;99.90;;;;;;5059405;28;20032;-67
2023/09/08 02:18:45;;;;;;;6.88;4.72;;;17.30;99.90;;;;;;5059068;28;20045;-67
2023/09/08 02:21:11;;;;;;;8.02;4.38;;;17.30;99.90;;;;;;5058870;28;20031;-67
2023/09/08 02:23:37;;;;;;;10.00;4.55;;;17.20;99.90;;;;;;5059128;28;20025;-67
2023/09/08 02:26:03;;;;;;;11.02;5.18;;;17.20;99.90;;;;;;5059010;28;20017;-67
2023/09/08 02:28:29;;;;;;;7.75;4.72;;;17.10;99.90;;;;;;5041500;28;20033;-67
2023/09/08 02:30:55;;;;;;;10.00;4.85;;;17.10;99.90;;;;;;5041449;28;20089;-67
2023/09/08 02:33:20;;;;;;;9.13;5.07;;;16.90;99.90;;;;;;5058989;28;20028;-67
2023/09/08 02:35:46;;;;;;;8.25;5.13;;;16.80;99.90;;;;;;5041289;28;20036;-67
2023/09/08 02:38:11;;;;;;;7.32;4.90;;;16.70;99.90;;;;;;5041051;28;20025;-67
2023/09/08 02:40:37;;;;;;;6.57;4.55;;;16.70;99.90;;;;;;5041152;28;20025;-67
2023/09/08 02:43:03;;;;;;;5.78;4.22;;;16.70;99.90;;;;;;5041288;28;20057;-67
2023/09/08 02:45:29;;;;;;;14.07;4.60;;;16.80;99.90;;;;;;5041284;28;20029;-67
2023/09/08 02:47:55;;;;;;;6.18;4.43;;;16.80;99.90;;;;;;5041006;28;20024;-67
2023/09/08 02:50:21;;;;;;;6.75;4.13;;;16.80;99.90;;;;;;5040899;28;20025;-67
2023/09/08 02:52:46;;;;;;;8.25;4.20;;;16.80;99.90;;;;;;5041145;28;20047;-67
2023/09/08 02:55:12;;;;;;;8.18;3.83;;;16.80;99.90;;;;;;5040884;28;20032;-67
2023/09/08 02:57:39;;;;;;;7.63;4.25;;;16.80;99.90;;;;;;5040842;28;20115;-67
2023/09/08 03:00:06;;;;;;;5.53;3.45;;;16.80;99.90;;;;;;5058336;28;20037;-67
2023/09/08 03:02:32;;;;;;;6.68;3.33;;;16.80;99.90;;;;;;5058512;28;20021;-67
2023/09/08 03:04:57;;;;;;;6.05;3.50;;;16.70;99.90;;;;;;5058094;28;20029;-67
2023/09/08 03:07:23;;;;;;;5.72;3.50;;;16.70;99.90;;;;;;5058359;28;20071;-67
2023/09/08 03:09:49;;;;;;;6.75;3.47;;;16.60;99.90;;;;;;5041690;28;20120;-67
2023/09/08 03:12:14;;;;;;;4.75;3.15;;;16.60;99.90;;;;;;5058124;28;20021;-67
2023/09/08 03:14:40;;;;;;;7.10;3.15;;;16.60;99.90;;;;;;5058445;28;20036;-67
2023/09/08 03:17:05;;;;;;;12.15;3.92;;;16.70;99.90;;;;;;5040495;28;20059;-67
2023/09/08 03:19:31;;;;;;;4.53;3.17;;;16.70;99.90;;;;;;5057923;28;20101;-67
2023/09/08 03:21:56;;;;;;;7.88;3.58;;;16.60;99.90;;;;;;5040356;28;20100;-67
2023/09/08 03:24:22;;;;;;;5.63;3.25;;;16.60;99.90;;;;;;5057466;28;20077;-67
2023/09/08 03:26:47;;;;;;;5.43;3.53;;;16.50;99.90;;;;;;5057991;28;20025;-67
2023/09/08 03:29:13;;;;;;;10.25;3.58;;;16.50;99.90;;;;;;5040185;28;20217;-67
2023/09/08 03:31:39;;;;;;;5.82;3.53;;;16.40;99.90;;;;;;5057743;28;20025;-67
2023/09/08 03:34:04;;;;;;;6.60;3.83;;;16.40;99.90;;;;;;5057512;28;20061;-67
2023/09/08 03:36:30;;;;;;;6.00;3.45;;;16.40;99.90;;;;;;5040057;28;20020;-67
2023/09/08 03:38:58;;;;;;;5.75;3.20;;;16.40;99.90;;;;;;5040362;28;20056;-67
2023/09/08 03:41:23;;;;;;;6.05;3.30;;;16.40;99.90;;;;;;5040047;28;20108;-67
2023/09/08 03:43:49;;;;;;;7.25;3.70;;;16.40;99.90;;;;;;5057462;28;20107;-67
2023/09/08 03:46:14;;;;;;;9.63;3.45;;;16.40;99.90;;;;;;5039831;28;20054;-67
2023/09/08 03:48:40;;;;;;;5.85;3.35;;;16.40;99.90;;;;;;5040114;28;20021;-67
2023/09/08 03:51:05;;;;;;;4.90;3.60;;;16.40;99.90;;;;;;5039798;28;20075;-67
2023/09/08 03:53:31;;;;;;;5.00;3.33;;;16.40;99.90;;;;;;5057898;28;20090;-67
2023/09/08 03:55:57;;;;;;;10.50;3.80;;;16.40;99.90;;;;;;5039746;28;20032;-67
2023/09/08 03:58:22;;;;;;;5.32;3.40;;;16.40;99.90;;;;;;5039860;28;20029;-67
2023/09/08 04:00:48;;;;;;;5.03;3.45;;;16.40;99.90;;;;;;5040777;28;20044;-67
2023/09/08 04:03:13;;;;;;;5.72;3.33;;;16.30;99.90;;;;;;5039686;28;20111;-67
2023/09/08 04:05:39;;;;;;;9.80;3.78;;;16.40;99.90;;;;;;5040033;28;20029;-67
2023/09/08 04:08:05;;;;;;;8.05;3.38;;;16.40;99.90;;;;;;5057065;28;20028;-67
2023/09/08 04:10:30;;;;;;;6.38;3.35;;;16.30;99.90;;;;;;5039847;28;20041;-67
2023/09/08 04:12:56;;;;;;;6.90;3.70;;;16.30;99.90;;;;;;5039577;28;20021;-67
2023/09/08 04:15:22;;;;;;;7.70;3.95;;;16.30;99.90;;;;;;5039578;28;20028;-67
2023/09/08 04:17:48;;;;;;;5.60;3.05;;;16.30;99.90;;;;;;5040113;28;20025;-67
2023/09/08 04:20:14;;;;;;;8.73;3.72;;;16.30;99.90;;;;;;5039377;28;20036;-67
2023/09/08 04:22:40;;;;;;;10.05;3.92;;;16.20;99.90;;;;;;5057256;28;20028;-67
2023/09/08 04:25:06;;;;;;;8.23;4.35;;;16.30;99.90;;;;;;5056913;28;20053;-67
2023/09/08 04:27:32;;;;;;;6.70;4.07;;;16.40;99.90;;;;;;5056737;28;20072;-67
2023/09/08 04:29:59;;;;;;;6.90;4.10;;;16.40;99.90;;;;;;5039417;28;20028;-67
2023/09/08 04:32:24;;;;;;;5.00;3.70;;;16.40;99.90;;;;;;5056965;28;20056;-67
2023/09/08 04:34:50;;;;;;;8.32;4.07;;;16.30;99.90;;;;;;5040081;28;20051;-67
2023/09/08 04:37:16;;;;;;;5.88;3.72;;;16.30;99.90;;;;;;5041721;28;20025;-67
2023/09/08 04:39:42;;;;;;;5.30;3.47;;;16.30;99.90;;;;;;5060778;28;20028;-67
2023/09/08 04:42:07;;;;;;;9.77;4.28;;;16.10;99.90;;;;;;5043369;28;20024;-67
2023/09/08 04:44:33;;;;;;;10.98;4.38;;;16.00;99.90;;;;;;5044118;28;20066;-67
2023/09/08 04:46:58;;;;;;;7.95;3.85;;;15.90;99.90;;;;;;5043209;28;20021;-67
2023/09/08 04:49:24;;;;;;;7.78;3.70;;;15.80;99.90;;;;;;5043193;28;20021;-67
2023/09/08 04:51:49;;;;;;;9.18;4.20;;;15.70;99.90;;;;;;5043230;28;20167;-67
2023/09/08 04:54:15;;;;;;;5.80;4.18;;;15.70;99.90;;;;;;5061045;28;20025;-67
2023/09/08 04:56:40;;;;;;;8.13;4.43;;;15.60;99.90;;;;;;5044196;28;20025;-67
2023/09/08 04:59:06;;;;;;;5.80;3.88;;;15.40;99.90;;;;;;5043342;28;20021;-67
2023/09/08 05:01:32;;;;;;;9.02;3.72;;;15.30;99.90;;;;;;5043030;28;20029;-67
2023/09/08 05:03:59;;;;;;;6.15;3.90;;;15.40;99.90;;;;;;5060377;28;20021;-67
2023/09/08 05:06:25;;;;;;;11.23;3.42;;;15.40;99.90;;;;;;5043345;28;20078;-67
2023/09/08 05:08:51;;;;;;;8.45;3.53;;;15.40;99.90;;;;;;5042765;28;20053;-67
2023/09/08 05:11:17;;;;;;;4.65;2.90;;;15.50;99.90;;;;;;5042727;28;20044;-67
2023/09/08 05:13:43;;;;;;;7.50;3.40;;;15.60;99.90;;;;;;5043234;28;20071;-67
2023/09/08 05:16:11;;;;;;;4.60;3.60;;;15.60;99.90;;;;;;5043563;28;20021;-67
2023/09/08 05:18:38;;;;;;;4.80;3.30;;;15.70;99.90;;;;;;5042763;28;20017;-67
2023/09/08 05:21:04;;;;;;;4.80;3.50;;;15.70;99.90;;;;;;5059995;28;20017;-67
2023/09/08 05:23:30;;;;;;;8.35;3.92;;;15.70;99.90;;;;;;5042634;28;20112;-67
2023/09/08 05:25:55;;;;;;;8.30;4.05;;;15.80;99.90;;;;;;5059962;28;20060;-67
2023/09/08 05:28:21;;;;;;;11.63;5.13;;;15.80;99.90;;;;;;5060337;28;20033;-67
2023/09/08 05:30:46;;;;;;;7.80;3.80;;;15.90;99.90;;;;;;5042518;28;20021;-67
2023/09/08 05:33:12;;;;;;;9.57;4.03;;;16.00;99.90;;;;;;5059950;28;20029;-67
2023/09/08 05:35:37;;;;;;;9.68;3.95;;;16.00;99.90;;;;;;5042310;28;20025;-67
2023/09/08 05:38:03;;;;;;;9.32;4.00;;;16.10;99.90;;;;;;5042299;28;20097;-67
2023/09/08 05:40:29;;;;;;;13.07;4.40;;;16.20;99.90;;;;;;5043115;28;20033;-67
2023/09/08 05:42:54;;;;;;;5.85;3.83;;;16.20;99.90;;;;;;5042344;28;20127;-67
2023/09/08 05:45:20;;;;;;;6.55;3.67;;;16.20;99.90;;;;;;5059581;28;20029;-65
2023/09/08 05:47:45;;;;;;;4.32;3.00;;;16.20;99.90;;;;;;5042308;28;20048;-65
2023/09/08 05:50:11;;;;;;;7.55;3.85;;;16.10;99.90;;;;;;5043183;28;20021;-65
2023/09/08 05:52:36;;;;;;;5.13;3.63;;;16.00;99.90;;;;;;5041971;28;20032;-65
2023/09/08 05:55:02;;;;;;;7.15;3.70;;;16.00;99.90;;;;;;5059567;28;20063;-64
2023/09/08 05:57:27;;;;;;;8.18;4.20;;;16.10;99.90;;;;;;5059568;28;20021;-64
2023/09/08 05:59:53;;;;;;;9.35;5.43;;;16.10;99.90;;;;;;5042505;28;20021;-69
2023/09/08 06:02:19;;;;;;;8.43;5.47;;;16.10;99.90;;;;;;5042128;28;20111;-67
2023/09/08 06:04:44;;;;;;;7.03;4.97;;;16.20;99.90;;;;;;5059256;28;20072;-67
2023/09/08 06:07:09;;;;;;;8.68;4.70;;;16.20;99.90;;;;;;5041831;28;20029;-64
2023/09/08 06:09:35;;;;;;;8.40;4.78;;;16.40;99.90;;;;;;5059098;28;20052;-64
2023/09/08 06:12:01;;;;;;;13.10;5.35;;;16.50;99.90;;;;;;5059378;28;20023;-67
2023/09/08 06:14:26;;;;;;;10.82;4.88;;;16.60;99.90;;;;;;5041538;28;20025;-64
2023/09/08 06:16:52;;;;;;;10.48;5.50;;;16.60;99.90;;;;;;5041900;28;20120;-64
2023/09/08 06:19:17;;;;;;;7.60;5.35;;;16.70;99.90;;;;;;5041504;28;20049;-64
2023/09/08 06:21:43;;;;;;;9.23;6.20;;;16.80;99.90;;;;;;5041582;28;20123;-69
2023/09/08 06:24:08;;;;;;;13.10;6.70;;;17.00;99.90;;;;;;5059451;28;20111;-70
2023/09/08 06:26:34;;;;;;;10.38;6.20;;;17.10;99.90;;;;;;5058971;28;20027;-70
2023/09/08 06:29:00;;;;;;;8.50;5.63;;;17.30;99.90;;;;;;5041300;28;20025;-67
2023/09/08 06:31:25;;;;;;;13.27;6.40;;;17.40;99.90;;;;;;5058920;28;20032;-67
2023/09/08 06:33:51;;;;;;;8.95;6.30;;;17.40;99.90;;;;;;5041340;28;20017;-67
2023/09/08 06:36:18;;;;;;;7.95;6.20;;;17.40;99.90;;;;;;5041386;28;20033;-67
2023/09/08 06:38:44;;;;;;;11.60;6.68;;;17.50;99.90;;;;;;5041214;28;20021;-65
2023/09/08 06:41:11;;;;;;;11.75;6.05;;;17.60;99.90;;;;;;5041484;28;20024;-70
2023/09/08 06:43:37;;;;;;;8.85;5.65;;;17.60;99.90;;;;;;5041107;28;20017;-70
2023/09/08 06:46:02;;;;;;;12.23;7.22;;;17.80;99.90;;;;;;5040995;28;20100;-65
2023/09/08 06:48:28;;;;;;;9.82;5.85;;;17.80;99.90;;;;;;5058474;28;20021;-67
2023/09/08 06:50:56;;;;;;;9.13;6.03;;;17.90;99.90;;;;;;5040998;28;20120;-67
2023/09/08 06:53:22;;;;;;;10.90;5.88;;;18.00;99.90;;;;;;5058436;28;20100;-66
2023/09/08 06:55:47;;;;;;;8.55;6.13;;;18.10;99.90;;;;;;5041008;28;20103;-64
2023/09/08 06:58:14;;;;;;;11.13;6.03;;;18.10;99.90;;;;;;5040689;28;20025;-69
2023/09/08 07:00:40;;;;;;;13.45;6.55;;;18.20;99.90;;;;;;5057761;28;20021;-67
2023/09/08 07:03:07;;;;;;;11.68;6.22;;;18.30;99.90;;;;;;5041800;28;20021;-64
2023/09/08 07:05:37;;;;;;;7.55;5.15;;;18.40;99.90;;;;;;5058338;28;20021;-65
2023/09/08 07:08:03;;;;;;;9.38;6.05;;;18.50;99.90;;;;;;5058183;28;20027;-67
2023/09/08 07:10:33;;;;;;;8.82;6.53;;;18.60;99.90;;;;;;5040576;28;20104;-66
2023/09/08 07:12:58;;;;;;;9.68;5.75;;;18.70;99.90;;;;;;5058416;28;20036;-67
2023/09/08 07:15:24;;;;;;;9.65;5.90;;;18.80;99.90;;;;;;5041265;28;20220;-67
2023/09/08 07:17:49;;;;;;;14.48;5.70;;;18.80;99.90;;;;;;5040391;28;20036;-67
2023/09/08 07:20:15;;;;;;;8.77;5.88;;;18.90;99.90;;;;;;5057887;28;20040;-69
2023/09/08 07:22:40;;;;;;;7.63;5.53;;;19.00;99.90;;;;;;5057825;28;20052;-69
2023/09/08 07:25:07;;;;;;;13.98;6.20;;;19.10;99.90;;;;;;5040212;28;20028;-65
2023/09/08 07:27:32;;;;;;;9.48;5.10;;;19.20;99.90;;;;;;5040311;28;20021;-66
2023/09/08 07:29:58;;;;;;;12.75;5.85;;;19.30;99.90;;;;;;5057930;28;20132;-66
2023/09/08 07:32:24;;;;;;;8.40;5.38;;;19.40;99.90;;;;;;5040114;28;20115;-67
2023/09/08 07:34:54;;;;;;;8.80;5.70;;;19.40;99.90;;;;;;5058115;28;20050;-65
2023/09/08 07:37:23;;;;;;;8.70;6.03;;;19.50;99.90;;;;;;5057769;28;20032;-65
2023/09/08 07:39:50;;;;;;;6.32;4.93;;;19.60;99.90;;;;;;5057821;28;20029;-65
2023/09/08 07:42:16;;;;;;;7.10;5.03;;;19.70;99.90;;;;;;5057564;28;20032;-65
2023/09/08 07:44:42;;;;;;;12.98;5.40;;;19.80;99.90;;;;;;5057388;28;20021;-69
2023/09/08 07:47:08;;;;;;;11.95;5.65;;;19.80;99.90;;;;;;5040469;28;20029;-69
2023/09/08 07:49:34;;;;;;;7.72;5.70;;;19.90;99.90;;;;;;5039954;28;20017;-67
2023/09/08 07:52:00;;;;;;;9.52;5.47;;;19.90;99.90;;;;;;5057570;28;20059;-67
2023/09/08 07:54:26;;;;;;;9.00;5.45;;;20.00;99.90;;;;;;5040584;28;20029;-67
2023/09/08 07:56:51;;;;;;;8.32;5.47;;;20.10;99.90;;;;;;5057263;28;20051;-67
2023/09/08 07:59:17;;;;;;;8.18;5.25;;;20.10;99.90;;;;;;5039719;28;20060;-67
2023/09/08 08:01:42;;;;;;;8.07;5.60;;;20.20;99.90;;;;;;5039747;28;20029;-69
2023/09/08 08:04:08;;;;;;;12.13;5.47;;;20.20;99.90;;;;;;5057356;28;20025;-69
2023/09/08 08:06:34;;;;;;;9.48;5.05;;;20.30;99.90;;;;;;5040069;28;20020;-65
2023/09/08 08:08:59;;;;;;;11.95;5.40;;;20.40;99.90;;;;;;5057198;28;20025;-66
2023/09/08 08:11:25;;;;;;;7.50;4.88;;;20.40;99.90;;;;;;5039196;28;20029;-67
2023/09/08 08:13:51;;;;;;;6.80;4.93;;;20.50;99.90;;;;;;5039814;28;20021;-67
2023/09/08 08:16:16;;;;;;;8.18;4.80;;;20.60;99.90;;;;;;5039777;28;20025;-67
2023/09/08 08:18:42;;;;;;;7.13;5.22;;;20.70;99.90;;;;;;5039517;28;20104;-65
2023/09/08 08:21:08;;;;;;;12.73;5.22;;;20.80;99.90;;;;;;5039754;28;20024;-69
2023/09/08 08:23:33;;;;;;;7.97;5.00;;;20.90;99.90;;;;;;5057353;28;20021;-69
2023/09/08 08:25:59;;;;;;;8.95;4.72;;;21.00;99.90;;;;;;5056829;28;20108;-67
2023/09/08 08:28:25;;;;;;;8.23;5.13;;;21.00;99.90;;;;;;5056996;28;20088;-67
2023/09/08 08:30:51;;;;;;;9.07;4.68;;;21.10;99.90;;;;;;5039362;28;20021;-67
2023/09/08 08:33:17;;;;;;;12.93;5.30;;;21.10;99.90;;;;;;5040136;28;20136;-69
2023/09/08 08:35:49;;;;;;;9.00;4.70;;;21.30;99.90;;;;;;5039468;28;20025;-69
2023/09/08 08:38:14;;;;;;;10.77;4.18;;;21.60;99.90;;;;;;5039322;28;20029;-69
2023/09/08 08:40:40;;;;;;;6.68;4.75;;;21.70;99.90;;;;;;5056858;28;20040;-68
2023/09/08 08:43:05;;;;;;;9.50;4.60;;;21.80;99.90;;;;;;5056771;28;20029;-67
2023/09/08 08:45:32;;;;;;;13.25;4.68;;;21.90;99.90;;;;;;5039087;28;20021;-67
2023/09/08 08:47:58;;;;;;;5.72;4.03;;;22.10;99.90;;;;;;5056641;28;20032;-67
2023/09/08 08:50:24;;;;;;;10.48;4.70;;;22.10;99.90;;;;;;5057126;28;20025;-67
2023/09/08 08:52:50;;;;;;;7.13;4.30;;;22.30;99.90;;;;;;5039487;28;20067;-67
2023/09/08 08:55:15;;;;;;;7.75;4.32;;;22.40;99.90;;;;;;5039786;28;20025;-67
2023/09/08 08:57:41;;;;;;;7.72;4.18;;;22.60;99.90;;;;;;5039188;28;20119;-67
2023/09/08 09:00:10;;;;;;;6.50;3.92;;;22.70;99.90;;;;;;5056761;28;20036;-65
2023/09/08 09:02:42;;;;;;;7.68;4.13;;;22.80;99.90;;;;;;5056475;28;20025;-65
2023/09/08 09:05:11;;;;;;;6.93;4.50;;;22.90;99.90;;;;;;5056797;28;20074;-65
2023/09/08 09:07:37;;;;;;;5.93;4.25;;;22.90;99.90;;;;;;5056392;28;20021;-65
2023/09/08 09:10:04;;;;;;;6.30;3.83;;;23.10;99.90;;;;;;5039081;28;20028;-65
2023/09/08 09:12:29;;;;;;;10.40;3.85;;;23.40;99.90;;;;;;5056351;28;20032;-65
2023/09/08 09:14:58;;;;;;;8.98;4.20;;;23.50;99.90;;;;;;5038851;28;20029;-65
2023/09/08 09:17:23;;;;;;;6.68;4.05;;;23.70;99.90;;;;;;5038900;28;20048;-67
2023/09/08 09:19:49;;;;;;;4.35;3.70;;;23.90;99.90;;;;;;5039653;28;20022;-67
2023/09/08 09:22:20;;;;;;;5.65;3.50;;;24.00;99.90;;;;;;5057026;28;20104;-67
2023/09/08 09:24:46;;;;;;;7.32;3.70;;;24.10;99.90;;;;;;5060302;28;20060;-67
2023/09/08 09:27:12;;;;;;;5.72;3.58;;;24.30;99.90;;;;;;5060182;28;20032;-67
2023/09/08 09:29:48;;;;;;;6.20;3.97;;;24.40;99.90;;;;;;5060009;28;20025;-67
2023/09/08 09:32:15;;;;;;;4.88;4.20;;;24.50;99.90;;;;;;5060120;28;20055;-67
2023/09/08 09:34:54;;;;;;;6.38;3.80;;;24.60;99.90;;;;;;5042541;28;20025;-67
2023/09/08 09:37:20;;;;;;;8.27;4.30;;;24.60;99.90;;;;;;5042550;28;20029;-65
2023/09/08 09:39:53;;;;;;;5.88;3.63;;;24.70;99.90;;;;;;5042213;28;20115;-65
2023/09/08 09:42:20;;;;;;;4.53;3.85;;;24.80;99.90;;;;;;5042332;28;20028;-65
2023/09/08 09:44:51;;;;;;;7.63;4.03;;;24.90;99.90;;;;;;5059948;28;20029;-65
2023/09/08 09:47:18;;;;;;;7.18;3.42;;;24.90;99.90;;;;;;5042494;28;20059;-65
2023/09/08 09:49:45;;;;;;;4.50;3.47;;;25.00;99.90;;;;;;5059657;28;20025;-65
2023/09/08 09:52:20;;;;;;;5.05;3.63;;;25.10;99.90;;;;;;5059606;28;20088;-65
2023/09/08 09:54:45;;;;;;;6.35;4.20;;;25.10;99.90;;;;;;5042093;28;20029;-65
2023/09/08 09:57:14;;;;;;;6.03;3.53;;;25.30;99.90;;;;;;5059921;28;20021;-65
2023/09/08 09:59:43;;;;;;;6.80;3.53;;;25.40;99.90;;;;;;5059369;28;20032;-65
2023/09/08 10:02:13;;;;;;;7.25;3.97;;;25.50;99.90;;;;;;5041886;28;20088;-65
2023/09/08 10:04:41;;;;;;;5.22;3.70;;;25.50;99.90;;;;;;5041800;28;20025;-65
2023/09/08 10:07:07;;;;;;;6.68;3.67;;;25.60;99.90;;;;;;5059604;28;20053;-65
2023/09/08 10:09:32;;;;;;;7.90;3.75;;;25.80;99.90;;;;;;5059392;28;20091;-65
2023/09/08 10:12:03;;;;;;;4.13;3.38;;;25.80;99.90;;;;;;5059468;28;20025;-65
2023/09/08 10:14:31;;;;;;;4.47;3.40;;;26.10;99.90;;;;;;5059886;28;20056;-65
2023/09/08 10:16:59;;;;;;;4.63;3.30;;;26.30;99.90;;;;;;5059344;28;20025;-65
2023/09/08 10:19:26;;;;;;;5.70;3.85;;;26.40;99.90;;;;;;5059684;28;20029;-65
2023/09/08 10:21:54;;;;;;;6.18;3.80;;;26.60;99.90;;;;;;5059311;28;20025;-65
2023/09/08 10:24:26;;;;;;;8.77;3.65;;;26.80;99.90;;;;;;5042001;28;20080;-65
2023/09/08 10:27:07;;;;;;;8.70;3.70;;;26.90;99.90;;;;;;5042313;28;20025;-65
2023/09/08 10:29:33;;;;;;;5.80;4.00;;;27.20;99.90;;;;;;5058866;28;20063;-65
2023/09/08 10:31:59;;;;;;;6.53;3.53;;;27.70;99.90;;;;;;5041248;28;20021;-65
2023/09/08 10:34:25;;;;;;;4.70;3.63;;;27.70;99.90;;;;;;5040308;28;20021;-65
2023/09/08 10:36:52;;;;;;;5.63;3.55;;;27.50;99.90;;;;;;5041595;28;20021;-65
2023/09/08 10:39:41;;;;;;;4.15;3.75;;;27.70;99.90;;;;;;5041477;28;20078;-65
2023/09/08 10:42:16;;;;;;;4.88;3.83;;;28.30;99.90;;;;;;5042105;28;20029;-65
2023/09/08 10:44:56;;;;;;;7.78;3.97;;;28.90;99.90;;;;;;5041323;28;20025;-66
2023/09/08 10:47:30;;;;;;;4.95;3.45;;;29.30;99.90;;;;;;5042062;28;20028;-66
2023/09/08 10:49:57;;;;;;;4.45;3.55;;;30.50;99.90;;;;;;5058712;28;20036;-65
2023/09/08 10:52:24;;;;;;;5.07;3.55;;;30.10;99.90;;;;;;5041028;28;20025;-65
2023/09/08 10:54:51;;;;;;;3.78;3.42;;;29.60;99.90;;;;;;5040941;28;20021;-65
2023/09/08 10:57:21;;;;;;;6.25;3.75;;;29.30;99.90;;;;;;5058426;28;20032;-65
2023/09/08 10:59:57;;;;;;;6.22;3.78;;;29.00;99.90;;;;;;5040852;28;20044;-65
2023/09/08 11:02:36;;;;;;;6.53;3.58;;;29.10;99.90;;;;;;5058569;28;20025;-65
2023/09/08 11:05:04;;;;;;;5.30;4.05;;;29.20;99.90;;;;;;5040681;28;20108;-65
2023/09/08 11:07:32;;;;;;;6.95;3.63;;;29.40;99.90;;;;;;5058169;28;20021;-65
2023/09/08 11:09:57;;;;;;;9.57;3.17;;;29.20;99.90;;;;;;5041511;28;20021;-65
2023/09/08 11:12:26;;;;;;;6.38;3.75;;;29.50;99.90;;;;;;5041439;28;20032;-65
2023/09/08 11:14:52;;;;;;;6.57;3.78;;;29.50;99.90;;;;;;5040481;28;20021;-65
2023/09/08 11:17:17;;;;;;;6.85;3.88;;;29.50;99.90;;;;;;5040716;28;20032;-65
2023/09/08 11:19:50;;;;;;;5.78;3.50;;;29.70;99.90;;;;;;5058254;28;20040;-65
2023/09/08 11:22:16;;;;;;;4.72;3.78;;;29.90;99.90;;;;;;5057826;28;20036;-65
2023/09/08 11:24:43;;;;;;;4.20;3.47;;;30.00;99.90;;;;;;5057870;28;20103;-65
2023/09/08 11:27:13;;;;;;;6.82;4.20;;;30.10;99.90;;;;;;5041029;28;20025;-66
2023/09/08 11:29:41;;;;;;;5.57;4.07;;;31.10;99.90;;;;;;5040699;28;20079;-67
2023/09/08 11:32:08;;;;;;;5.50;3.60;;;31.00;99.90;;;;;;5040208;28;20017;-67
2023/09/08 11:34:37;;;;;;;5.63;4.32;;;30.90;99.90;;;;;;5040219;28;20032;-67
2023/09/08 11:37:13;;;;;;;5.10;4.05;;;30.90;99.90;;;;;;5057672;28;20076;-67
2023/09/08 11:39:42;;;;;;;7.50;3.97;;;31.00;99.90;;;;;;5040065;28;20060;-67
2023/09/08 11:42:09;;;;;;;11.48;3.85;;;31.00;99.90;;;;;;5057648;28;20057;-67
2023/09/08 11:44:36;;;;;;;5.65;3.75;;;31.00;99.90;;;;;;5057744;28;20064;-67
2023/09/08 11:47:09;;;;;;;5.63;3.97;;;31.00;99.90;;;;;;5039774;28;20021;-67
2023/09/08 11:49:35;;;;;;;4.90;4.28;;;31.30;99.90;;;;;;5039936;28;20079;-67
2023/09/08 11:52:02;;;;;;;5.50;3.63;;;31.50;99.90;;;;;;5057433;28;20036;-67
2023/09/08 11:54:28;;;;;;;5.10;4.10;;;31.50;99.90;;;;;;5057578;28;20104;-67
2023/09/08 11:56:54;;;;;;;4.55;3.70;;;31.50;99.90;;;;;;5039744;28;20029;-67
2023/09/08 11:59:20;;;;;;;6.40;3.92;;;31.00;99.90;;;;;;5040528;28;20025;-67
2023/09/08 12:01:46;;;;;;;6.03;3.65;;;31.00;99.90;;;;;;5057510;28;20166;-67
2023/09/08 12:04:21;;;;;;;4.88;3.50;;;31.50;99.90;;;;;;5057129;28;20029;-67
2023/09/08 12:06:49;;;;;;;7.25;3.88;;;31.50;99.90;;;;;;5039953;28;20063;-67
2023/09/08 12:09:14;;;;;;;7.90;4.13;;;31.70;99.90;;;;;;5039684;28;20099;-67
2023/09/08 12:11:42;;;;;;;5.25;3.80;;;32.50;99.90;;;;;;5039731;28;20040;-67
2023/09/08 12:14:10;;;;;;;4.55;3.22;;;32.80;98.10;;;;;;5056954;28;20025;-67
2023/09/08 12:16:36;;;;;;;4.38;3.55;;;33.30;97.30;;;;;;5039584;28;20043;-67
2023/09/08 12:19:01;;;;;;;7.63;3.80;;;34.30;94.50;;;;;;5056836;28;20028;-67
2023/09/08 12:21:27;;;;;;;5.35;3.72;;;33.20;94.90;;;;;;5057087;28;20105;-67
2023/09/08 12:23:53;;;;;;;4.00;3.60;;;32.80;95.60;;;;;;5039368;28;20025;-68
2023/09/08 12:26:20;;;;;;;4.82;3.83;;;33.40;94.70;;;;;;5039498;28;20025;-67
2023/09/08 12:28:47;;;;;;;5.57;3.50;;;33.10;93.80;;;;;;5057322;28;20040;-67
2023/09/08 12:31:17;;;;;;;6.35;3.60;;;33.00;94.10;;;;;;5039493;28;20029;-67
2023/09/08 12:33:43;;;;;;;8.60;4.25;;;32.40;94.50;;;;;;5039642;28;20017;-67
2023/09/08 12:36:19;;;;;;;5.15;3.40;;;32.30;94.80;;;;;;5056822;28;20025;-67
2023/09/08 12:38:50;;;;;;;4.25;3.90;;;32.90;94.50;;;;;;5039147;28;20115;-67
2023/09/08 12:41:16;;;;;;;6.55;3.67;;;33.00;94.10;;;;;;5039613;28;20059;-67
2023/09/08 12:43:41;;;;;;;4.55;3.50;;;32.70;94.20;;;;;;5056821;28;20029;-67